Time;durP1;ratioP1;P1;durP2;ratioP2;P2;SDS_P1;SDS_P2;PMS_P1;PMS_P2;Temp;Humidity;BMP_temperature;BMP_pressure;BME280_temperature;BME280_humidity;BME280_pressure;Samples;Min_cycle;Max_cycle;Signal;HPM_P1;HPM_P2
2023/11/19 00:00:29;;;;;;;;;;;18.30;60.00;;;;;;5047014;28;19931;-58
2023/11/19 00:02:54;;;;;;;;;;;18.90;58.50;;;;;;5046609;28;19912;-56
2023/11/19 00:05:20;;;;;;;;;;;19.60;57.00;;;;;;5045370;28;19909;-61
2023/11/19 00:07:45;;;;;;;;;;;20.20;55.50;;;;;;5046496;28;19908;-57
2023/11/19 00:10:12;;;;;;;;;;;20.80;54.20;;;;;;5045093;28;19923;-57
2023/11/19 00:12:38;;;;;;;;;;;21.30;53.10;;;;;;5048610;28;19920;-56
2023/11/19 00:15:04;;;;;;;;;;;21.70;52.30;;;;;;5046587;28;19952;-57
2023/11/19 00:17:30;;;;;;;;;;;21.80;51.80;;;;;;5044191;28;19908;-57
2023/11/19 00:19:55;;;;;;;;;;;22.00;51.60;;;;;;5045921;28;19916;-56
2023/11/19 00:22:22;;;;;;;;;;;22.10;51.50;;;;;;5046246;28;19917;-57
2023/11/19 00:24:47;;;;;;;;;;;22.10;51.30;;;;;;5046785;28;19912;-58
2023/11/19 00:27:12;;;;;;;;;;;22.10;51.40;;;;;;5046918;28;19912;-55
2023/11/19 00:29:38;;;;;;;;;;;22.00;51.60;;;;;;5046875;28;19920;-57
2023/11/19 00:32:05;;;;;;;;;;;21.90;52.10;;;;;;5044201;28;19971;-56
2023/11/19 00:34:30;;;;;;;;;;;21.70;52.50;;;;;;5042830;28;20395;-56
2023/11/19 00:36:56;;;;;;;;;;;21.50;52.90;;;;;;5046288;28;19939;-56
2023/11/19 00:39:22;;;;;;;;;;;21.30;53.40;;;;;;5044455;28;19912;-56
2023/11/19 00:41:48;;;;;;;;;;;21.10;53.70;;;;;;5046136;28;19908;-58
2023/11/19 00:44:13;;;;;;;;;;;21.00;54.20;;;;;;5051396;28;19966;-56
2023/11/19 00:46:39;;;;;;;;;;;20.80;54.60;;;;;;5045350;28;19912;-56
2023/11/19 00:49:05;;;;;;;;;;;20.60;55.00;;;;;;5045044;28;20006;-56
2023/11/19 00:51:31;;;;;;;;;;;20.50;55.40;;;;;;5044055;28;19913;-58
2023/11/19 00:53:57;;;;;;;;;;;20.30;55.70;;;;;;5050324;28;19909;-56
2023/11/19 00:56:22;;;;;;;;;;;20.10;56.10;;;;;;5044087;28;19962;-57
2023/11/19 00:58:48;;;;;;;;;;;20.00;56.60;;;;;;5048910;28;19915;-57
2023/11/19 01:01:13;;;;;;;;;;;19.80;56.90;;;;;;5043903;28;20281;-57
2023/11/19 01:03:39;;;;;;;;;;;19.70;57.20;;;;;;5046296;28;19916;-55
2023/11/19 01:06:05;;;;;;;;;;;19.60;57.60;;;;;;5044887;28;19913;-55
2023/11/19 01:08:30;;;;;;;;;;;19.50;57.80;;;;;;5043921;28;20019;-57
2023/11/19 01:10:56;;;;;;;;;;;19.40;58.00;;;;;;5045210;28;19912;-57
2023/11/19 01:13:21;;;;;;;;;;;19.30;58.30;;;;;;5034933;28;19967;-57
2023/11/19 01:15:47;;;;;;;;;;;19.20;58.40;;;;;;5019111;28;19913;-56
2023/11/19 01:18:13;;;;;;;;;;;19.10;58.60;;;;;;5015296;28;19963;-55
2023/11/19 01:20:38;;;;;;;;;;;19.00;58.80;;;;;;5016400;28;20286;-56
2023/11/19 01:23:04;;;;;;;;;;;19.00;59.00;;;;;;5017462;28;19960;-57
2023/11/19 01:25:29;;;;;;;;;;;18.90;59.10;;;;;;5025826;28;19924;-55
2023/11/19 01:27:58;;;;;;;;;;;18.80;59.20;;;;;;5040033;28;19915;-57
2023/11/19 01:30:23;;;;;;;;;;;18.70;59.30;;;;;;5045616;28;19944;-56
2023/11/19 01:32:49;;;;;;;;;;;18.70;59.50;;;;;;5047441;28;20392;-57
2023/11/19 01:35:14;;;;;;;;;;;18.60;59.70;;;;;;5049105;28;20298;-58
2023/11/19 01:37:40;;;;;;;;;;;18.60;59.80;;;;;;5049591;28;20683;-56
2023/11/19 01:40:07;;;;;;;;;;;18.50;60.00;;;;;;5047132;28;19909;-56
2023/11/19 01:42:39;;;;;;;;;;;18.40;60.00;;;;;;5048336;28;19915;-56
2023/11/19 01:45:07;;;;;;;;;;;18.40;60.20;;;;;;5044988;28;19913;-58
2023/11/19 01:47:33;;;;;;;;;;;18.40;60.20;;;;;;5045843;28;19994;-55
2023/11/19 01:49:58;;;;;;;;;;;18.30;60.30;;;;;;5049334;28;19995;-56
2023/11/19 01:52:25;;;;;;;;;;;18.30;60.30;;;;;;5045773;28;20011;-55
2023/11/19 01:54:51;;;;;;;;;;;18.20;60.40;;;;;;5048667;28;19909;-56
2023/11/19 01:57:16;;;;;;;;;;;18.20;60.50;;;;;;5046199;28;19908;-56
2023/11/19 01:59:42;;;;;;;;;;;18.20;60.60;;;;;;5036639;28;20378;-56
2023/11/19 02:02:08;;;;;;;;;;;18.10;60.70;;;;;;5035120;28;20406;-56
2023/11/19 02:04:34;;;;;;;;;;;18.10;60.80;;;;;;5040164;28;19991;-56
2023/11/19 02:07:00;;;;;;;;;;;18.00;60.80;;;;;;5039757;28;19909;-57
2023/11/19 02:09:26;;;;;;;;;;;18.00;60.90;;;;;;5037091;28;19923;-56
2023/11/19 02:11:53;;;;;;;;;;;18.00;61.00;;;;;;5038045;28;19939;-56
2023/11/19 02:14:23;;;;;;;;;;;17.90;61.00;;;;;;5037841;28;19909;-56
2023/11/19 02:16:49;;;;;;;;;;;17.90;61.10;;;;;;5036513;28;19913;-56
2023/11/19 02:19:14;;;;;;;;;;;17.90;61.10;;;;;;5035512;28;19909;-56
2023/11/19 02:21:41;;;;;;;;;;;17.90;61.20;;;;;;5033881;28;19915;-57
2023/11/19 02:24:08;;;;;;;;;;;17.80;61.10;;;;;;5032949;28;20457;-56
2023/11/19 02:26:39;;;;;;;;;;;17.90;61.20;;;;;;5031471;28;19909;-55
2023/11/19 02:29:06;;;;;;;;;;;17.80;61.30;;;;;;5035058;28;19912;-56
2023/11/19 02:31:32;;;;;;;;;;;17.80;61.30;;;;;;5028829;28;20262;-56
2023/11/19 02:33:57;;;;;;;;;;;17.80;61.20;;;;;;5039690;28;19920;-56
2023/11/19 02:36:22;;;;;;;;;;;17.80;61.30;;;;;;5037276;28;20579;-56
2023/11/19 02:38:48;;;;;;;;;;;17.80;61.30;;;;;;5036689;28;19934;-57
2023/11/19 02:41:14;;;;;;;;;;;17.80;61.30;;;;;;5041202;28;19948;-56
2023/11/19 02:43:39;;;;;;;;;;;17.70;61.30;;;;;;5043639;28;19909;-57
2023/11/19 02:46:06;;;;;;;;;;;17.70;61.30;;;;;;5052026;28;19916;-56
2023/11/19 02:48:32;;;;;;;;;;;17.70;61.40;;;;;;5044417;28;20386;-57
2023/11/19 02:50:58;;;;;;;;;;;17.70;61.40;;;;;;5050174;28;19939;-56
2023/11/19 02:53:24;;;;;;;;;;;17.70;61.50;;;;;;5044950;28;19963;-56
2023/11/19 02:55:50;;;;;;;;;;;17.60;61.40;;;;;;5049271;28;19921;-56
2023/11/19 02:58:23;;;;;;;;;;;17.60;61.50;;;;;;5045599;28;19909;-56
2023/11/19 03:01:33;;;;;;;;;;;17.60;61.50;;;;;;5043482;28;19955;-58
2023/11/19 03:03:40;;;;;;;;;;;17.60;61.50;;;;;;5032844;28;19909;-58
2023/11/19 03:06:06;;;;;;;;;;;17.60;61.60;;;;;;5044316;28;19915;-56
2023/11/19 03:08:32;;;;;;;;;;;17.60;61.60;;;;;;5038998;28;19913;-55
2023/11/19 03:10:58;;;;;;;;;;;17.60;61.60;;;;;;5042090;28;20406;-56
2023/11/19 03:13:24;;;;;;;;;;;17.50;61.60;;;;;;5039697;28;19921;-54
2023/11/19 03:15:49;;;;;;;;;;;17.50;61.60;;;;;;5044545;28;20408;-56
2023/11/19 03:18:15;;;;;;;;;;;17.60;61.70;;;;;;5042473;28;19924;-55
2023/11/19 03:20:40;;;;;;;;;;;17.50;61.60;;;;;;5041654;28;19916;-56
2023/11/19 03:23:06;;;;;;;;;;;17.50;61.70;;;;;;5042912;28;19917;-56
2023/11/19 03:25:36;;;;;;;;;;;17.50;61.70;;;;;;5042100;28;20279;-57
2023/11/19 03:28:02;;;;;;;;;;;17.50;61.70;;;;;;5043887;28;19961;-54
2023/11/19 03:30:28;;;;;;;;;;;17.50;61.80;;;;;;5031135;28;19920;-56
2023/11/19 03:32:54;;;;;;;;;;;17.50;61.80;;;;;;5038336;28;19917;-56
2023/11/19 03:35:19;;;;;;;;;;;17.50;61.80;;;;;;5044720;28;19909;-56
2023/11/19 03:37:45;;;;;;;;;;;17.40;61.80;;;;;;5043719;28;20289;-55
2023/11/19 03:40:10;;;;;;;;;;;17.40;61.80;;;;;;5043871;28;20298;-56
2023/11/19 03:42:36;;;;;;;;;;;17.40;61.70;;;;;;5044173;28;19913;-57
2023/11/19 03:45:03;;;;;;;;;;;17.40;61.80;;;;;;5044511;28;19916;-55
2023/11/19 03:47:29;;;;;;;;;;;17.40;61.80;;;;;;5044970;28;19916;-57
2023/11/19 03:49:54;;;;;;;;;;;17.40;61.80;;;;;;5043529;28;20917;-57
2023/11/19 03:52:20;;;;;;;;;;;17.40;61.90;;;;;;5051827;28;19909;-56
2023/11/19 03:54:45;;;;;;;;;;;17.40;62.00;;;;;;5043252;28;19912;-56
2023/11/19 03:57:12;;;;;;;;;;;17.30;61.90;;;;;;5050153;28;20369;-58
2023/11/19 03:59:37;;;;;;;;;;;17.40;61.90;;;;;;5044339;28;19909;-56
2023/11/19 04:02:02;;;;;;;;;;;17.30;61.90;;;;;;5048595;28;20404;-57
2023/11/19 04:04:29;;;;;;;;;;;17.30;61.80;;;;;;5044093;28;19909;-57
2023/11/19 04:06:55;;;;;;;;;;;17.30;61.90;;;;;;5041325;28;19919;-57
2023/11/19 04:09:20;;;;;;;;;;;17.30;61.90;;;;;;5044500;28;19913;-57
2023/11/19 04:11:49;;;;;;;;;;;17.30;61.90;;;;;;5047201;28;20009;-57
2023/11/19 04:14:14;;;;;;;;;;;17.30;61.90;;;;;;5042316;28;20315;-57
2023/11/19 04:16:40;;;;;;;;;;;17.30;61.90;;;;;;5046987;28;19991;-55
2023/11/19 04:19:06;;;;;;;;;;;17.30;62.00;;;;;;5045000;28;19913;-56
2023/11/19 04:21:32;;;;;;;;;;;17.30;62.00;;;;;;5044864;28;19915;-56
2023/11/19 04:23:57;;;;;;;;;;;17.30;62.00;;;;;;5043269;28;19931;-58
2023/11/19 04:26:23;;;;;;;;;;;17.30;62.00;;;;;;5044223;28;19909;-57
2023/11/19 04:28:49;;;;;;;;;;;17.30;62.00;;;;;;5043416;28;19995;-57
2023/11/19 04:31:16;;;;;;;;;;;17.30;62.00;;;;;;5048046;28;20426;-56
2023/11/19 04:33:41;;;;;;;;;;;17.20;62.00;;;;;;5042448;28;19938;-58
2023/11/19 04:36:07;;;;;;;;;;;17.20;62.00;;;;;;5043508;28;20478;-55
2023/11/19 04:38:33;;;;;;;;;;;17.20;62.00;;;;;;5043239;28;20592;-52
2023/11/19 04:40:58;;;;;;;;;;;17.20;62.00;;;;;;5042569;28;20331;-56
2023/11/19 04:43:23;;;;;;;;;;;17.20;62.00;;;;;;5043651;28;19912;-54
2023/11/19 04:45:49;;;;;;;;;;;17.20;62.10;;;;;;5042518;28;19912;-57
2023/11/19 04:48:14;;;;;;;;;;;17.20;62.00;;;;;;5043204;28;19909;-55
2023/11/19 04:50:40;;;;;;;;;;;17.20;62.10;;;;;;5042470;28;19917;-54
2023/11/19 04:53:05;;;;;;;;;;;17.20;62.10;;;;;;5043652;28;20314;-58
2023/11/19 04:55:31;;;;;;;;;;;17.20;62.10;;;;;;5044719;28;19944;-52
2023/11/19 04:57:56;;;;;;;;;;;17.10;62.10;;;;;;5049839;28;19913;-58
2023/11/19 05:00:22;;;;;;;;;;;17.20;62.10;;;;;;5044491;28;19912;-58
2023/11/19 05:02:47;;;;;;;;;;;17.20;62.10;;;;;;5048312;28;19999;-56
2023/11/19 05:05:12;;;;;;;;;;;17.10;62.10;;;;;;5044690;28;19923;-52
2023/11/19 05:07:38;;;;;;;;;;;17.10;62.00;;;;;;5049378;28;19915;-57
2023/11/19 05:10:04;;;;;;;;;;;17.10;62.00;;;;;;5041948;28;19912;-52
2023/11/19 05:12:30;;;;;;;;;;;17.10;62.10;;;;;;5047409;28;19908;-55
2023/11/19 05:14:56;;;;;;;;;;;17.10;62.20;;;;;;5043721;28;19908;-58
2023/11/19 05:17:21;;;;;;;;;;;17.10;62.20;;;;;;5045573;28;19980;-54
2023/11/19 05:19:48;;;;;;;;;;;17.10;62.20;;;;;;5043968;28;19908;-55
2023/11/19 05:22:13;;;;;;;;;;;17.10;62.20;;;;;;5043295;28;19925;-54
2023/11/19 05:24:40;;;;;;;;;;;17.10;62.20;;;;;;5045217;28;19908;-53
2023/11/19 05:27:06;;;;;;;;;;;17.10;62.20;;;;;;5042900;28;19909;-53
2023/11/19 05:29:32;;;;;;;;;;;17.10;62.20;;;;;;5046003;28;19912;-52
2023/11/19 05:31:57;;;;;;;;;;;17.10;62.20;;;;;;5046683;28;19944;-54
2023/11/19 05:34:23;;;;;;;;;;;17.10;62.20;;;;;;5046535;28;19995;-61
2023/11/19 05:36:49;;;;;;;;;;;17.00;62.10;;;;;;5048097;28;19908;-52
2023/11/19 05:39:15;;;;;;;;;;;17.00;62.20;;;;;;5043512;28;19912;-57
2023/11/19 05:41:41;;;;;;;;;;;17.00;62.20;;;;;;5043001;28;19996;-56
2023/11/19 05:44:06;;;;;;;;;;;17.00;62.20;;;;;;5042598;28;20003;-54
2023/11/19 05:46:32;;;;;;;;;;;17.00;62.20;;;;;;5050373;28;19909;-52
2023/11/19 05:48:57;;;;;;;;;;;17.00;62.20;;;;;;5044293;28;19928;-52
2023/11/19 05:51:24;;;;;;;;;;;17.00;62.20;;;;;;5043546;28;19916;-59
2023/11/19 05:53:50;;;;;;;;;;;17.00;62.20;;;;;;5042431;28;19919;-53
2023/11/19 05:56:21;;;;;;;;;;;17.10;62.10;;;;;;5042788;28;19909;-54
2023/11/19 05:58:48;;;;;;;;;;;17.40;61.70;;;;;;5048523;28;19970;-58
2023/11/19 06:01:13;;;;;;;;;;;17.90;60.80;;;;;;5042624;28;20209;-58
2023/11/19 06:03:39;;;;;;;;;;;18.50;59.30;;;;;;5047652;28;19908;-55
2023/11/19 06:06:05;;;;;;;;;;;19.20;57.40;;;;;;5042247;28;20381;-55
2023/11/19 06:08:31;;;;;;;;;;;19.90;55.80;;;;;;5046874;28;19909;-54
2023/11/19 06:10:56;;;;;;;;;;;20.50;54.60;;;;;;5042253;28;19913;-54
2023/11/19 06:13:22;;;;;;;;;;;21.10;53.40;;;;;;5047868;28;20255;-55
2023/11/19 06:15:47;;;;;;;;;;;21.40;52.50;;;;;;5044034;28;19915;-57
2023/11/19 06:18:14;;;;;;;;;;;21.60;52.20;;;;;;5045542;28;20007;-55
2023/11/19 06:20:40;;;;;;;;;;;21.80;51.80;;;;;;5046929;28;19995;-52
2023/11/19 06:23:05;;;;;;;;;;;22.00;51.50;;;;;;5045140;28;19916;-55
2023/11/19 06:25:31;;;;;;;;;;;22.10;51.20;;;;;;5046982;28;19962;-52
2023/11/19 06:27:57;;;;;;;;;;;22.20;51.00;;;;;;5046648;28;21252;-56
2023/11/19 06:30:22;;;;;;;;;;;22.20;51.10;;;;;;5044140;28;19917;-58
2023/11/19 06:32:48;;;;;;;;;;;22.00;51.40;;;;;;5046158;28;19939;-52
2023/11/19 06:35:13;;;;;;;;;;;21.90;51.80;;;;;;5046191;28;19913;-55
2023/11/19 06:37:39;;;;;;;;;;;21.70;52.90;;;;;;5045056;28;19908;-55
2023/11/19 06:40:05;;;;;;;;;;;21.50;52.80;;;;;;5045282;28;19935;-56
2023/11/19 06:42:31;;;;;;;;;;;21.20;53.20;;;;;;5045430;28;19996;-58
2023/11/19 06:44:57;;;;;;;;;;;21.10;53.70;;;;;;5045101;28;19963;-57
2023/11/19 06:47:25;;;;;;;;;;;20.90;54.00;;;;;;5045573;28;19947;-57
2023/11/19 06:49:50;;;;;;;;;;;20.70;54.40;;;;;;5046054;28;20504;-57
2023/11/19 06:52:16;;;;;;;;;;;20.60;54.80;;;;;;5045488;28;19917;-53
2023/11/19 06:54:41;;;;;;;;;;;20.40;55.10;;;;;;5045976;28;19909;-55
2023/11/19 06:57:08;;;;;;;;;;;20.30;55.60;;;;;;5045161;28;19909;-56
2023/11/19 06:59:34;;;;;;;;;;;20.10;56.00;;;;;;5045295;28;19908;-52
2023/11/19 07:01:59;;;;;;;;;;;20.00;56.40;;;;;;5044443;28;20282;-57
2023/11/19 07:04:24;;;;;;;;;;;19.80;56.70;;;;;;5049270;28;19908;-57
2023/11/19 07:06:53;;;;;;;;;;;19.70;57.10;;;;;;5044900;28;19913;-57
2023/11/19 07:09:18;;;;;;;;;;;19.50;57.40;;;;;;5047157;28;19924;-58
2023/11/19 07:11:45;;;;;;;;;;;19.40;57.70;;;;;;5046383;28;19912;-55
2023/11/19 07:14:11;;;;;;;;;;;19.30;57.90;;;;;;5044507;28;20100;-53
2023/11/19 07:16:37;;;;;;;;;;;19.30;58.10;;;;;;5048072;28;19913;-52
2023/11/19 07:19:03;;;;;;;;;;;19.20;58.30;;;;;;5042424;28;20293;-55
2023/11/19 07:21:28;;;;;;;;;;;19.10;58.40;;;;;;5047444;28;19913;-55
2023/11/19 07:23:54;;;;;;;;;;;19.00;58.60;;;;;;5043756;28;19916;-59
2023/11/19 07:26:20;;;;;;;;;;;19.00;58.80;;;;;;5046661;28;19940;-57
2023/11/19 07:28:45;;;;;;;;;;;18.90;59.00;;;;;;5039196;28;20007;-58
2023/11/19 07:31:12;;;;;;;;;;;18.80;59.00;;;;;;5037812;28;20393;-57
2023/11/19 07:33:39;;;;;;;;;;;18.70;59.20;;;;;;5025404;28;19958;-54
2023/11/19 07:36:04;;;;;;;;;;;18.70;59.40;;;;;;5041044;28;20024;-58
2023/11/19 07:38:30;;;;;;;;;;;18.60;59.50;;;;;;5043169;28;20012;-54
2023/11/19 07:40:55;;;;;;;;;;;18.60;59.70;;;;;;5044575;28;20753;-58
2023/11/19 07:43:20;;;;;;;;;;;18.50;59.80;;;;;;5042905;28;19982;-57
2023/11/19 07:45:46;;;;;;;;;;;18.50;59.90;;;;;;5044047;28;20357;-53
2023/11/19 07:48:13;;;;;;;;;;;18.40;60.00;;;;;;5043917;28;20338;-59
2023/11/19 07:50:41;;;;;;;;;;;18.40;60.10;;;;;;5044819;28;19927;-59
2023/11/19 07:53:07;;;;;;;;;;;18.30;60.10;;;;;;5043114;28;20500;-53
2023/11/19 07:55:33;;;;;;;;;;;18.30;60.10;;;;;;5045279;28;19966;-55
2023/11/19 07:57:59;;;;;;;;;;;18.30;60.30;;;;;;5043684;28;19995;-60
2023/11/19 08:00:24;;;;;;;;;;;18.20;60.30;;;;;;5044214;28;19916;-54
2023/11/19 08:02:49;;;;;;;;;;;18.10;60.30;;;;;;5041946;28;19912;-57
2023/11/19 08:05:15;;;;;;;;;;;18.20;60.50;;;;;;5040627;28;20374;-55
2023/11/19 08:07:41;;;;;;;;;;;18.10;60.50;;;;;;5041891;28;19913;-52
2023/11/19 08:10:09;;;;;;;;;;;18.10;60.60;;;;;;5040132;28;19951;-53
2023/11/19 08:12:35;;;;;;;;;;;18.00;60.60;;;;;;5042471;28;20270;-57
2023/11/19 08:15:01;;;;;;;;;;;18.00;60.70;;;;;;5041672;28;19909;-52
2023/11/19 08:17:27;;;;;;;;;;;18.00;60.80;;;;;;5046826;28;19938;-54
2023/11/19 08:19:52;;;;;;;;;;;18.00;60.90;;;;;;5041412;28;19913;-55
2023/11/19 08:22:18;;;;;;;;;;;17.90;61.00;;;;;;5045166;28;19933;-54
2023/11/19 08:24:43;;;;;;;;;;;17.90;60.90;;;;;;5041275;28;19908;-52
2023/11/19 08:27:08;;;;;;;;;;;17.90;60.80;;;;;;5036156;28;19941;-56
2023/11/19 08:29:34;;;;;;;;;;;17.90;61.00;;;;;;5034613;28;20374;-54
2023/11/19 08:32:00;;;;;;;;;;;17.90;61.00;;;;;;5034536;28;20393;-58
2023/11/19 08:34:25;;;;;;;;;;;17.90;61.00;;;;;;5047432;28;19909;-56
2023/11/19 08:36:53;;;;;;;;;;;17.90;61.20;;;;;;5045530;28;20411;-58
2023/11/19 08:39:19;;;;;;;;;;;17.80;61.00;;;;;;5047459;28;19958;-58
2023/11/19 08:41:44;;;;;;;;;;;17.80;61.10;;;;;;5047717;28;19916;-58
2023/11/19 08:44:09;;;;;;;;;;;17.80;61.00;;;;;;5048034;28;19909;-53
2023/11/19 08:46:35;;;;;;;;;;;17.80;61.10;;;;;;5043843;28;19908;-54
2023/11/19 08:49:01;;;;;;;;;;;17.80;61.20;;;;;;5048822;28;19908;-57
2023/11/19 08:51:28;;;;;;;;;;;17.80;61.10;;;;;;5046136;28;20006;-53
2023/11/19 08:53:53;;;;;;;;;;;17.70;61.20;;;;;;5047369;28;19915;-54
2023/11/19 08:56:19;;;;;;;;;;;17.70;61.30;;;;;;5048787;28;19924;-57
2023/11/19 08:58:44;;;;;;;;;;;17.70;61.40;;;;;;5049387;28;19913;-52
2023/11/19 09:01:10;;;;;;;;;;;17.70;61.40;;;;;;5048816;28;19970;-54
2023/11/19 09:03:36;;;;;;;;;;;17.70;61.50;;;;;;5041737;28;20539;-59
2023/11/19 09:06:02;;;;;;;;;;;17.70;61.50;;;;;;5032644;28;19916;-56
2023/11/19 09:08:27;;;;;;;;;;;17.70;61.70;;;;;;5035017;28;19920;-57
2023/11/19 09:10:53;;;;;;;;;;;17.60;61.70;;;;;;5032493;28;19913;-55
2023/11/19 09:13:18;;;;;;;;;;;17.80;64.50;;;;;;5035233;28;19912;-54
2023/11/19 09:15:44;;;;;;;;;;;18.00;63.70;;;;;;5035665;28;19913;-56
2023/11/19 09:18:09;;;;;;;;;;;18.00;62.80;;;;;;5037445;28;19917;-57
2023/11/19 09:20:38;;;;;;;;;;;17.80;62.30;;;;;;5034570;28;19952;-54
2023/11/19 09:23:05;;;;;;;;;;;17.80;62.40;;;;;;5038827;28;19923;-58
2023/11/19 09:25:30;;;;;;;;;;;17.70;62.40;;;;;;5037814;28;20006;-52
2023/11/19 09:27:56;;;;;;;;;;;17.70;62.50;;;;;;5040209;28;19913;-54
2023/11/19 09:30:22;;;;;;;;;;;17.70;62.40;;;;;;5041932;28;19912;-56
2023/11/19 09:32:48;;;;;;;;;;;17.70;62.40;;;;;;5046900;28;19916;-58
2023/11/19 09:35:14;;;;;;;;;;;17.60;62.30;;;;;;5045116;28;20020;-55
2023/11/19 09:37:40;;;;;;;;;;;17.60;62.40;;;;;;5046836;28;20550;-56
2023/11/19 09:40:09;;;;;;;;;;;17.60;62.40;;;;;;5048074;28;19995;-56
2023/11/19 09:42:47;;;;;;;;;;;17.60;62.40;;;;;;5042691;28;20114;-56
2023/11/19 09:45:13;;;;;;;;;;;17.50;62.40;;;;;;5044831;28;19909;-58
2023/11/19 09:47:39;;;;;;;;;;;17.50;62.40;;;;;;5047480;28;19948;-53
2023/11/19 09:50:05;;;;;;;;;;;17.50;62.60;;;;;;5022042;28;19956;-58
2023/11/19 09:52:31;;;;;;;;;;;17.50;62.40;;;;;;5040934;28;20388;-57
2023/11/19 09:54:56;;;;;;;;;;;17.50;62.40;;;;;;5046675;28;19963;-52
2023/11/19 09:57:22;;;;;;;;;;;17.50;62.40;;;;;;5045051;28;19916;-54
2023/11/19 09:59:47;;;;;;;;;;;17.50;62.50;;;;;;5044047;28;19920;-57
2023/11/19 10:02:13;;;;;;;;;;;17.50;62.40;;;;;;5045319;28;19915;-58
2023/11/19 10:04:39;;;;;;;;;;;17.50;62.40;;;;;;5048611;28;19958;-57
2023/11/19 10:07:05;;;;;;;;;;;17.40;62.50;;;;;;5046353;28;19916;-59
2023/11/19 10:09:30;;;;;;;;;;;17.40;62.40;;;;;;5041878;28;19912;-58
2023/11/19 10:11:56;;;;;;;;;;;17.50;62.50;;;;;;5046091;28;19913;-52
2023/11/19 10:14:23;;;;;;;;;;;17.40;62.50;;;;;;5043675;28;19910;-55
2023/11/19 10:16:48;;;;;;;;;;;17.40;62.50;;;;;;5049043;28;20320;-55
2023/11/19 10:19:23;;;;;;;;;;;17.40;62.50;;;;;;5043266;28;19913;-53
2023/11/19 10:21:49;;;;;;;;;;;17.50;62.50;;;;;;5046253;23;19959;-57
2023/11/19 10:24:14;;;;;;;;;;;17.40;62.50;;;;;;5044965;28;19936;-53
2023/11/19 10:26:40;;;;;;;;;;;17.40;62.40;;;;;;5043902;28;19912;-59
2023/11/19 10:29:05;;;;;;;;;;;17.40;62.50;;;;;;5044703;28;19966;-57
2023/11/19 10:31:31;;;;;;;;;;;17.40;62.40;;;;;;5054935;28;19924;-55
2023/11/19 10:33:56;;;;;;;;;;;17.40;62.50;;;;;;5050305;28;20377;-54
2023/11/19 10:36:23;;;;;;;;;;;17.40;62.40;;;;;;5053688;28;19923;-57
2023/11/19 10:38:56;;;;;;;;;;;17.40;62.50;;;;;;5053642;28;20326;-54
2023/11/19 10:41:28;;;;;;;;;;;17.40;62.50;;;;;;5050736;28;19913;-56
2023/11/19 10:43:53;;;;;;;;;;;17.40;62.50;;;;;;5061377;28;19916;-55
2023/11/19 10:46:22;;;;;;;;;;;17.40;62.50;;;;;;5061073;28;20620;-53
2023/11/19 10:48:48;;;;;;;;;;;17.40;62.50;;;;;;5059552;28;19908;-57
2023/11/19 10:51:21;;;;;;;;;;;17.40;62.40;;;;;;5053991;28;19920;-55
2023/11/19 10:53:48;;;;;;;;;;;17.40;62.50;;;;;;5039428;28;20491;-58
2023/11/19 10:56:16;;;;;;;;;;;17.40;62.40;;;;;;5071582;28;20003;-55
2023/11/19 10:58:44;;;;;;;;;;;17.40;62.70;;;;;;5056765;28;19915;-55
2023/11/19 11:01:16;;;;;;;;;;;17.40;62.40;;;;;;5049794;28;19971;-58
2023/11/19 11:03:42;;;;;;;;;;;17.40;62.40;;;;;;5048046;28;19908;-59
2023/11/19 11:06:09;;;;;;;;;;;17.30;62.50;;;;;;5055372;28;19954;-52
2023/11/19 11:08:36;;;;;;;;;;;17.40;62.50;;;;;;5052067;28;20011;-54
2023/11/19 11:11:01;;;;;;;;;;;17.40;62.60;;;;;;5055436;28;19920;-59
2023/11/19 11:13:31;;;;;;;;;;;17.40;62.60;;;;;;5054677;28;20400;-56
2023/11/19 11:15:59;;;;;;;;;;;17.30;62.60;;;;;;5048552;28;20377;-56
2023/11/19 11:18:25;;;;;;;;;;;17.30;62.70;;;;;;5049401;28;19913;-53
2023/11/19 11:20:56;;;;;;;;;;;17.30;62.60;;;;;;5052823;28;19953;-57
2023/11/19 11:23:46;;;;;;;;;;;17.30;62.60;;;;;;5052093;28;19917;-55
2023/11/19 11:26:15;;;;;;;;;;;17.30;62.50;;;;;;5057862;28;19966;-52
2023/11/19 11:28:44;;;;;;;;;;;17.30;62.50;;;;;;5052965;28;20258;-59
2023/11/19 11:31:16;;;;;;;;;;;17.30;62.50;;;;;;5050165;28;20003;-58
2023/11/19 11:33:53;;;;;;;;;;;17.30;62.50;;;;;;5043939;28;19927;-56
2023/11/19 11:36:19;;;;;;;;;;;17.30;62.50;;;;;;5049638;28;19999;-53
2023/11/19 11:38:47;;;;;;;;;;;17.30;62.50;;;;;;5027882;28;19913;-57
2023/11/19 11:41:23;;;;;;;;;;;17.30;62.50;;;;;;5046136;28;19909;-59
2023/11/19 11:43:50;;;;;;;;;;;17.30;62.50;;;;;;5045686;28;19912;-53
2023/11/19 11:46:39;;;;;;;;;;;17.30;62.60;;;;;;5050899;28;19908;-57
2023/11/19 11:49:06;;;;;;;;;;;17.30;62.60;;;;;;5033130;28;19917;-59
2023/11/19 11:51:48;;;;;;;;;;;17.30;62.50;;;;;;5052162;28;20560;-54
2023/11/19 11:54:19;;;;;;;;;;;17.20;62.50;;;;;;5050419;28;19914;-55
2023/11/19 11:57:22;;;;;;;;;;;17.20;62.50;;;;;;5053372;28;19961;-58
2023/11/19 11:59:48;;;;;;;;;;;17.20;62.50;;;;;;4990424;28;19909;-54
2023/11/19 12:02:16;;;;;;;;;;;17.20;62.50;;;;;;5038183;28;19999;-53
2023/11/19 12:04:42;;;;;;;;;;;17.20;62.50;;;;;;5042715;28;19983;-60
2023/11/19 12:07:12;;;;;;;;;;;17.20;62.40;;;;;;5054546;28;19989;-53
2023/11/19 12:09:41;;;;;;;;;;;17.20;62.50;;;;;;5059566;28;19916;-58
2023/11/19 12:12:07;;;;;;;;;;;17.20;62.60;;;;;;5054567;28;20275;-53
2023/11/19 12:14:51;;;;;;;;;;;17.20;62.60;;;;;;5054790;28;20333;-56
2023/11/19 12:17:49;;;;;;;;;;;17.20;62.60;;;;;;5054975;28;20388;-58
2023/11/19 12:20:16;;;;;;;;;;;17.20;62.50;;;;;;5022741;28;19912;-56
2023/11/19 12:22:42;;;;;;;;;;;17.20;62.50;;;;;;5058059;28;19959;-59
2023/11/19 12:25:08;;;;;;;;;;;17.20;62.40;;;;;;5053018;28;19993;-57
2023/11/19 12:27:34;;;;;;;;;;;17.20;62.60;;;;;;5043400;28;19916;-55
2023/11/19 12:30:00;;;;;;;;;;;17.20;62.70;;;;;;5036923;28;19912;-56
2023/11/19 12:32:26;;;;;;;;;;;17.20;62.60;;;;;;5035311;28;19916;-58
2023/11/19 12:34:51;;;;;;;;;;;17.20;63.00;;;;;;5046476;28;19908;-58
2023/11/19 12:37:17;;;;;;;;;;;17.20;63.00;;;;;;5064252;28;19908;-57
2023/11/19 12:39:43;;;;;;;;;;;17.20;63.20;;;;;;5030543;28;19912;-58
2023/11/19 12:42:08;;;;;;;;;;;17.20;63.30;;;;;;5040680;28;19915;-61
2023/11/19 12:44:34;;;;;;;;;;;17.20;63.30;;;;;;5045460;28;19908;-58
2023/11/19 12:47:06;;;;;;;;;;;17.20;63.20;;;;;;5043540;28;19912;-59
2023/11/19 12:49:32;;;;;;;;;;;17.20;63.30;;;;;;5048182;28;19909;-56
2023/11/19 12:51:58;;;;;;;;;;;17.20;63.30;;;;;;5043519;28;19995;-58
2023/11/19 12:54:33;;;;;;;;;;;17.20;63.30;;;;;;5047798;28;19987;-57
2023/11/19 12:56:59;;;;;;;;;;;17.20;63.30;;;;;;5051466;28;20332;-57
2023/11/19 12:59:24;;;;;;;;;;;17.20;63.40;;;;;;5049296;28;19909;-55
2023/11/19 13:01:54;;;;;;;;;;;17.20;63.40;;;;;;5054515;28;19913;-55
2023/11/19 13:04:19;;;;;;;;;;;17.20;63.30;;;;;;5055717;28;19915;-55
2023/11/19 13:06:46;;;;;;;;;;;17.20;63.40;;;;;;5054159;28;19908;-57
2023/11/19 13:09:21;;;;;;;;;;;17.20;63.50;;;;;;5056330;28;19967;-55
2023/11/19 13:11:46;;;;;;;;;;;17.20;63.40;;;;;;5055890;28;19928;-59
2023/11/19 13:14:12;;;;;;;;;;;17.20;63.40;;;;;;5061374;28;20317;-57
2023/11/19 13:16:38;;;;;;;;;;;17.20;63.40;;;;;;5050825;28;19915;-56
2023/11/19 13:19:04;;;;;;;;;;;17.30;63.10;;;;;;5057544;28;20008;-55
2023/11/19 13:21:30;;;;;;;;;;;17.50;62.80;;;;;;5057793;28;20336;-53
2023/11/19 13:23:56;;;;;;;;;;;17.80;62.00;;;;;;5064128;28;20011;-56
2023/11/19 13:26:21;;;;;;;;;;;18.40;60.70;;;;;;5057225;28;19915;-56
2023/11/19 13:28:47;;;;;;;;;;;19.00;59.30;;;;;;5061201;28;19991;-56
2023/11/19 13:31:12;;;;;;;;;;;19.70;57.70;;;;;;5055131;28;20273;-53
2023/11/19 13:33:38;;;;;;;;;;;20.40;55.90;;;;;;5058254;28;19908;-59
2023/11/19 13:36:06;;;;;;;;;;;20.90;54.90;;;;;;5059428;28;19908;-59
2023/11/19 13:38:32;;;;;;;;;;;21.10;54.10;;;;;;5065098;28;19995;-56
2023/11/19 13:40:58;;;;;;;;;;;21.50;53.50;;;;;;5062647;28;20006;-56
2023/11/19 13:43:24;;;;;;;;;;;21.80;52.90;;;;;;5049480;28;19909;-53
2023/11/19 13:45:50;;;;;;;;;;;22.10;52.20;;;;;;5056460;28;19944;-58
2023/11/19 13:48:16;;;;;;;;;;;22.30;51.80;;;;;;5061392;28;20223;-58
2023/11/19 13:50:42;;;;;;;;;;;22.30;51.70;;;;;;5058784;28;20429;-52
2023/11/19 13:53:07;;;;;;;;;;;22.20;51.90;;;;;;5054113;28;19919;-52
2023/11/19 13:55:33;;;;;;;;;;;22.00;52.30;;;;;;5057608;28;19913;-54
2023/11/19 13:57:58;;;;;;;;;;;21.90;52.70;;;;;;5053285;28;19916;-57
2023/11/19 14:00:24;;;;;;;;;;;21.70;53.10;;;;;;5059595;28;19908;-59
2023/11/19 14:02:49;;;;;;;;;;;21.50;53.50;;;;;;5058737;28;19971;-53
2023/11/19 14:05:17;;;;;;;;;;;21.30;54.00;;;;;;5056014;28;20384;-53
2023/11/19 14:07:43;;;;;;;;;;;21.10;54.50;;;;;;5052787;28;19917;-58
2023/11/19 14:10:11;;;;;;;;;;;20.90;54.90;;;;;;5055660;28;19996;-60
2023/11/19 14:12:37;;;;;;;;;;;20.80;55.20;;;;;;5055741;28;19912;-57